sensor_id;sensor_type;location;lat;lon;timestamp;temperature;humidity
40255;DHT22;25973;52.368;4.940;2022-09-28T00:00:27;10.50;99.90
40255;DHT22;25973;52.368;4.940;2022-09-28T00:02:54;10.50;99.90
40255;DHT22;25973;52.368;4.940;2022-09-28T00:05:22;10.50;99.90
40255;DHT22;25973;52.368;4.940;2022-09-28T00:07:54;10.50;99.90
40255;DHT22;25973;52.368;4.940;2022-09-28T00:10:21;10.50;99.90
40255;DHT22;25973;52.368;4.940;2022-09-28T00:12:50;10.50;99.90
40255;DHT22;25973;52.368;4.940;2022-09-28T00:15:16;10.50;99.90
40255;DHT22;25973;52.368;4.940;2022-09-28T00:17:46;10.50;99.90
40255;DHT22;25973;52.368;4.940;2022-09-28T00:20:12;10.40;99.90
40255;DHT22;25973;52.368;4.940;2022-09-28T00:22:38;10.40;99.90
40255;DHT22;25973;52.368;4.940;2022-09-28T00:25:05;10.40;99.90
40255;DHT22;25973;52.368;4.940;2022-09-28T00:27:31;10.30;99.90
40255;DHT22;25973;52.368;4.940;2022-09-28T00:29:56;10.30;99.90
40255;DHT22;25973;52.368;4.940;2022-09-28T00:32:22;10.30;99.90
40255;DHT22;25973;52.368;4.940;2022-09-28T00:34:50;10.30;99.90
40255;DHT22;25973;52.368;4.940;2022-09-28T00:37:16;10.20;99.90
40255;DHT22;25973;52.368;4.940;2022-09-28T00:39:47;10.20;99.90
40255;DHT22;25973;52.368;4.940;2022-09-28T00:42:23;10.20;99.90
40255;DHT22;25973;52.368;4.940;2022-09-28T00:44:53;10.20;99.90
40255;DHT22;25973;52.368;4.940;2022-09-28T00:50:02;10.30;99.90
40255;DHT22;25973;52.368;4.940;2022-09-28T00:52:37;10.30;99.90
40255;DHT22;25973;52.368;4.940;2022-09-28T00:55:07;10.30;99.90
40255;DHT22;25973;52.368;4.940;2022-09-28T00:57:35;10.30;99.90
40255;DHT22;25973;52.368;4.940;2022-09-28T01:00:03;10.30;99.90
40255;DHT22;25973;52.368;4.940;2022-09-28T01:02:30;10.30;99.90
40255;DHT22;25973;52.368;4.940;2022-09-28T01:04:57;10.30;99.90
40255;DHT22;25973;52.368;4.940;2022-09-28T01:07:23;10.30;99.90
40255;DHT22;25973;52.368;4.940;2022-09-28T01:09:49;10.40;99.90
40255;DHT22;25973;52.368;4.940;2022-09-28T01:12:15;10.40;99.90
40255;DHT22;25973;52.368;4.940;2022-09-28T01:14:42;10.40;99.90
40255;DHT22;25973;52.368;4.940;2022-09-28T01:17:20;10.40;99.90
40255;DHT22;25973;52.368;4.940;2022-09-28T01:23:47;10.40;99.90
40255;DHT22;25973;52.368;4.940;2022-09-28T01:28:59;10.40;99.90
40255;DHT22;25973;52.368;4.940;2022-09-28T01:31:29;10.40;99.90
40255;DHT22;25973;52.368;4.940;2022-09-28T01:34:13;10.40;99.90
40255;DHT22;25973;52.368;4.940;2022-09-28T01:36:44;10.40;99.90
40255;DHT22;25973;52.368;4.940;2022-09-28T01:39:12;10.40;99.90
40255;DHT22;25973;52.368;4.940;2022-09-28T01:41:40;10.30;99.90
40255;DHT22;25973;52.368;4.940;2022-09-28T01:44:09;10.30;99.90
40255;DHT22;25973;52.368;4.940;2022-09-28T01:46:39;10.30;99.90
40255;DHT22;25973;52.368;4.940;2022-09-28T01:49:22;10.20;99.90
40255;DHT22;25973;52.368;4.940;2022-09-28T01:51:58;10.20;99.90
40255;DHT22;25973;52.368;4.940;2022-09-28T01:54:41;10.20;99.90
40255;DHT22;25973;52.368;4.940;2022-09-28T01:57:23;10.20;99.90
40255;DHT22;25973;52.368;4.940;2022-09-28T02:00:06;10.20;99.90
40255;DHT22;25973;52.368;4.940;2022-09-28T02:03:06;10.20;99.90
40255;DHT22;25973;52.368;4.940;2022-09-28T02:05:41;10.10;99.90
40255;DHT22;25973;52.368;4.940;2022-09-28T02:08:29;10.10;99.90
40255;DHT22;25973;52.368;4.940;2022-09-28T02:13:32;10.10;99.90
40255;DHT22;25973;52.368;4.940;2022-09-28T02:16:13;10.00;99.90
40255;DHT22;25973;52.368;4.940;2022-09-28T02:18:40;10.00;99.90
40255;DHT22;25973;52.368;4.940;2022-09-28T02:21:16;10.00;99.90
40255;DHT22;25973;52.368;4.940;2022-09-28T02:23:56;9.90;99.90
40255;DHT22;25973;52.368;4.940;2022-09-28T02:26:28;10.00;99.90
40255;DHT22;25973;52.368;4.940;2022-09-28T02:28:55;9.90;99.90
40255;DHT22;25973;52.368;4.940;2022-09-28T02:31:20;9.90;99.90
40255;DHT22;25973;52.368;4.940;2022-09-28T02:33:46;9.90;99.90
40255;DHT22;25973;52.368;4.940;2022-09-28T02:36:15;9.80;99.90
40255;DHT22;25973;52.368;4.940;2022-09-28T02:38:41;9.80;99.90
40255;DHT22;25973;52.368;4.940;2022-09-28T02:44:16;9.80;99.90
40255;DHT22;25973;52.368;4.940;2022-09-28T02:49:34;9.70;99.90
40255;DHT22;25973;52.368;4.940;2022-09-28T02:52:20;9.80;99.90
40255;DHT22;25973;52.368;4.940;2022-09-28T02:55:09;9.70;99.90
40255;DHT22;25973;52.368;4.940;2022-09-28T03:06:10;9.70;99.90
40255;DHT22;25973;52.368;4.940;2022-09-28T03:11:28;9.70;99.90
40255;DHT22;25973;52.368;4.940;2022-09-28T03:13:55;9.70;99.90
40255;DHT22;25973;52.368;4.940;2022-09-28T03:16:21;9.70;99.90
40255;DHT22;25973;52.368;4.940;2022-09-28T03:18:47;9.70;99.90
40255;DHT22;25973;52.368;4.940;2022-09-28T03:21:14;9.70;99.90
40255;DHT22;25973;52.368;4.940;2022-09-28T03:23:40;9.70;99.90
40255;DHT22;25973;52.368;4.940;2022-09-28T03:26:13;9.70;99.90
40255;DHT22;25973;52.368;4.940;2022-09-28T03:28:39;9.70;99.90
40255;DHT22;25973;52.368;4.940;2022-09-28T03:31:05;9.70;99.90
40255;DHT22;25973;52.368;4.940;2022-09-28T03:33:31;9.70;99.90
40255;DHT22;25973;52.368;4.940;2022-09-28T03:35:57;9.70;99.90
40255;DHT22;25973;52.368;4.940;2022-09-28T03:38:22;9.70;99.90
40255;DHT22;25973;52.368;4.940;2022-09-28T03:40:53;9.70;99.90
40255;DHT22;25973;52.368;4.940;2022-09-28T03:43:19;9.70;99.90
40255;DHT22;25973;52.368;4.940;2022-09-28T03:45:54;9.70;99.90
40255;DHT22;25973;52.368;4.940;2022-09-28T03:48:25;9.80;99.90
40255;DHT22;25973;52.368;4.940;2022-09-28T03:50:55;9.80;99.90
40255;DHT22;25973;52.368;4.940;2022-09-28T03:53:21;9.80;99.90
40255;DHT22;25973;52.368;4.940;2022-09-28T03:55:47;9.80;99.90
40255;DHT22;25973;52.368;4.940;2022-09-28T03:58:13;9.80;99.90
40255;DHT22;25973;52.368;4.940;2022-09-28T04:00:38;9.80;99.90
40255;DHT22;25973;52.368;4.940;2022-09-28T04:03:04;9.80;99.90
40255;DHT22;25973;52.368;4.940;2022-09-28T04:05:30;9.80;99.90
40255;DHT22;25973;52.368;4.940;2022-09-28T04:07:55;9.80;99.90
40255;DHT22;25973;52.368;4.940;2022-09-28T04:10:22;9.80;99.90
40255;DHT22;25973;52.368;4.940;2022-09-28T04:12:48;9.80;99.90
40255;DHT22;25973;52.368;4.940;2022-09-28T04:15:15;9.80;99.90
40255;DHT22;25973;52.368;4.940;2022-09-28T04:17:41;9.80;99.90
40255;DHT22;25973;52.368;4.940;2022-09-28T04:20:07;9.80;99.90
40255;DHT22;25973;52.368;4.940;2022-09-28T04:22:33;9.80;99.90
40255;DHT22;25973;52.368;4.940;2022-09-28T04:25:02;9.80;99.90
40255;DHT22;25973;52.368;4.940;2022-09-28T04:27:28;9.80;99.90
40255;DHT22;25973;52.368;4.940;2022-09-28T04:30:19;9.80;99.90
40255;DHT22;25973;52.368;4.940;2022-09-28T04:32:46;9.80;99.90
40255;DHT22;25973;52.368;4.940;2022-09-28T04:35:12;9.80;99.90
40255;DHT22;25973;52.368;4.940;2022-09-28T04:37:37;9.80;99.90
40255;DHT22;25973;52.368;4.940;2022-09-28T04:40:03;9.80;99.90
40255;DHT22;25973;52.368;4.940;2022-09-28T04:42:29;9.70;99.90
40255;DHT22;25973;52.368;4.940;2022-09-28T04:44:54;9.80;99.90
40255;DHT22;25973;52.368;4.940;2022-09-28T04:47:22;9.80;99.90
40255;DHT22;25973;52.368;4.940;2022-09-28T04:49:47;9.70;99.90
40255;DHT22;25973;52.368;4.940;2022-09-28T04:52:13;9.70;99.90
40255;DHT22;25973;52.368;4.940;2022-09-28T04:54:38;9.70;99.90
40255;DHT22;25973;52.368;4.940;2022-09-28T04:57:04;9.70;99.90
40255;DHT22;25973;52.368;4.940;2022-09-28T04:59:30;9.70;99.90
40255;DHT22;25973;52.368;4.940;2022-09-28T05:01:56;9.70;99.90
40255;DHT22;25973;52.368;4.940;2022-09-28T05:04:21;9.70;99.90
40255;DHT22;25973;52.368;4.940;2022-09-28T05:06:47;9.70;99.90
40255;DHT22;25973;52.368;4.940;2022-09-28T05:09:13;9.70;99.90
40255;DHT22;25973;52.368;4.940;2022-09-28T05:11:38;9.70;99.90
40255;DHT22;25973;52.368;4.940;2022-09-28T05:14:04;9.70;99.90
40255;DHT22;25973;52.368;4.940;2022-09-28T05:16:30;9.70;99.90
40255;DHT22;25973;52.368;4.940;2022-09-28T05:18:58;9.60;99.90
40255;DHT22;25973;52.368;4.940;2022-09-28T05:21:24;9.60;99.90
40255;DHT22;25973;52.368;4.940;2022-09-28T05:23:51;9.60;99.90
40255;DHT22;25973;52.368;4.940;2022-09-28T05:26:17;9.60;99.90
40255;DHT22;25973;52.368;4.940;2022-09-28T05:28:43;9.60;99.90
40255;DHT22;25973;52.368;4.940;2022-09-28T05:31:09;9.60;99.90
40255;DHT22;25973;52.368;4.940;2022-09-28T05:33:35;9.60;99.90
40255;DHT22;25973;52.368;4.940;2022-09-28T05:36:01;9.60;99.90
40255;DHT22;25973;52.368;4.940;2022-09-28T05:38:28;9.60;99.90
40255;DHT22;25973;52.368;4.940;2022-09-28T05:40:54;9.70;99.90
40255;DHT22;25973;52.368;4.940;2022-09-28T05:43:19;9.70;99.90
40255;DHT22;25973;52.368;4.940;2022-09-28T05:45:45;9.70;99.90
40255;DHT22;25973;52.368;4.940;2022-09-28T05:48:10;9.70;99.90
40255;DHT22;25973;52.368;4.940;2022-09-28T05:50:36;9.70;99.90
40255;DHT22;25973;52.368;4.940;2022-09-28T05:53:06;9.70;99.90
40255;DHT22;25973;52.368;4.940;2022-09-28T05:55:32;9.70;99.90
40255;DHT22;25973;52.368;4.940;2022-09-28T05:58:02;9.70;99.90
40255;DHT22;25973;52.368;4.940;2022-09-28T06:00:29;9.70;99.90
40255;DHT22;25973;52.368;4.940;2022-09-28T06:02:56;9.70;99.90
40255;DHT22;25973;52.368;4.940;2022-09-28T06:05:23;9.70;99.90
40255;DHT22;25973;52.368;4.940;2022-09-28T06:07:49;9.80;99.90
40255;DHT22;25973;52.368;4.940;2022-09-28T06:10:14;9.80;99.90
40255;DHT22;25973;52.368;4.940;2022-09-28T06:12:40;9.80;99.90
40255;DHT22;25973;52.368;4.940;2022-09-28T06:15:06;9.90;99.90
40255;DHT22;25973;52.368;4.940;2022-09-28T06:17:32;9.90;99.90
40255;DHT22;25973;52.368;4.940;2022-09-28T06:19:58;9.90;99.90
40255;DHT22;25973;52.368;4.940;2022-09-28T06:22:23;9.90;99.90
40255;DHT22;25973;52.368;4.940;2022-09-28T06:24:49;10.00;99.90
40255;DHT22;25973;52.368;4.940;2022-09-28T06:27:14;10.00;99.90
40255;DHT22;25973;52.368;4.940;2022-09-28T06:29:40;10.00;99.90
40255;DHT22;25973;52.368;4.940;2022-09-28T06:32:05;10.00;99.90
40255;DHT22;25973;52.368;4.940;2022-09-28T06:34:31;10.10;99.90
40255;DHT22;25973;52.368;4.940;2022-09-28T06:36:57;10.10;99.90
40255;DHT22;25973;52.368;4.940;2022-09-28T06:39:23;10.10;99.90
40255;DHT22;25973;52.368;4.940;2022-09-28T06:41:48;10.20;99.90
40255;DHT22;25973;52.368;4.940;2022-09-28T06:44:14;10.30;99.90
40255;DHT22;25973;52.368;4.940;2022-09-28T06:46:39;10.30;99.90
40255;DHT22;25973;52.368;4.940;2022-09-28T06:49:05;10.40;99.90
40255;DHT22;25973;52.368;4.940;2022-09-28T06:51:33;10.50;99.90
40255;DHT22;25973;52.368;4.940;2022-09-28T06:53:59;10.70;99.90
40255;DHT22;25973;52.368;4.940;2022-09-28T06:56:25;10.80;99.90
40255;DHT22;25973;52.368;4.940;2022-09-28T06:58:50;11.00;99.90
40255;DHT22;25973;52.368;4.940;2022-09-28T07:01:16;11.20;99.90
40255;DHT22;25973;52.368;4.940;2022-09-28T07:03:41;11.40;99.90
40255;DHT22;25973;52.368;4.940;2022-09-28T07:06:10;11.60;99.90
40255;DHT22;25973;52.368;4.940;2022-09-28T07:08:36;11.90;99.90
40255;DHT22;25973;52.368;4.940;2022-09-28T07:11:05;12.10;99.90
40255;DHT22;25973;52.368;4.940;2022-09-28T07:13:31;12.40;99.90
40255;DHT22;25973;52.368;4.940;2022-09-28T07:15:57;12.60;99.90
40255;DHT22;25973;52.368;4.940;2022-09-28T07:18:26;12.80;99.90
40255;DHT22;25973;52.368;4.940;2022-09-28T07:20:54;13.00;99.90
40255;DHT22;25973;52.368;4.940;2022-09-28T07:23:22;13.20;99.90
40255;DHT22;25973;52.368;4.940;2022-09-28T07:25:47;13.40;99.90
40255;DHT22;25973;52.368;4.940;2022-09-28T07:28:14;13.70;99.90
40255;DHT22;25973;52.368;4.940;2022-09-28T07:30:40;13.90;99.90
40255;DHT22;25973;52.368;4.940;2022-09-28T07:33:07;14.30;99.90
40255;DHT22;25973;52.368;4.940;2022-09-28T07:35:34;14.60;99.90
40255;DHT22;25973;52.368;4.940;2022-09-28T07:38:04;14.90;99.90
40255;DHT22;25973;52.368;4.940;2022-09-28T07:40:32;15.20;99.90
40255;DHT22;25973;52.368;4.940;2022-09-28T07:43:16;15.50;99.90
40255;DHT22;25973;52.368;4.940;2022-09-28T07:45:46;15.80;99.90
40255;DHT22;25973;52.368;4.940;2022-09-28T07:48:12;16.10;99.90
40255;DHT22;25973;52.368;4.940;2022-09-28T07:50:45;16.40;99.90
40255;DHT22;25973;52.368;4.940;2022-09-28T07:53:12;16.70;99.90
40255;DHT22;25973;52.368;4.940;2022-09-28T07:55:39;17.00;99.90
40255;DHT22;25973;52.368;4.940;2022-09-28T07:58:05;17.30;99.90
40255;DHT22;25973;52.368;4.940;2022-09-28T08:00:30;17.60;99.90
40255;DHT22;25973;52.368;4.940;2022-09-28T08:03:02;17.80;99.90
40255;DHT22;25973;52.368;4.940;2022-09-28T08:05:28;18.00;99.90
40255;DHT22;25973;52.368;4.940;2022-09-28T08:08:00;18.20;99.90
40255;DHT22;25973;52.368;4.940;2022-09-28T08:10:26;18.40;99.90
40255;DHT22;25973;52.368;4.940;2022-09-28T08:12:56;18.60;99.90
40255;DHT22;25973;52.368;4.940;2022-09-28T08:15:23;18.70;99.90
40255;DHT22;25973;52.368;4.940;2022-09-28T08:17:49;18.90;99.90
40255;DHT22;25973;52.368;4.940;2022-09-28T08:20:14;19.00;99.90
40255;DHT22;25973;52.368;4.940;2022-09-28T08:23:04;19.10;99.90
40255;DHT22;25973;52.368;4.940;2022-09-28T08:25:30;19.20;99.90
40255;DHT22;25973;52.368;4.940;2022-09-28T08:27:55;19.30;99.90
40255;DHT22;25973;52.368;4.940;2022-09-28T08:30:21;19.40;99.90
40255;DHT22;25973;52.368;4.940;2022-09-28T08:32:47;19.50;99.90
40255;DHT22;25973;52.368;4.940;2022-09-28T08:35:15;19.60;99.90
40255;DHT22;25973;52.368;4.940;2022-09-28T08:37:41;19.60;99.90
40255;DHT22;25973;52.368;4.940;2022-09-28T08:40:17;19.70;99.90
40255;DHT22;25973;52.368;4.940;2022-09-28T08:42:43;19.80;99.90
40255;DHT22;25973;52.368;4.940;2022-09-28T08:45:17;19.80;99.90
40255;DHT22;25973;52.368;4.940;2022-09-28T08:48:15;19.90;99.90
40255;DHT22;25973;52.368;4.940;2022-09-28T08:51:01;20.00;99.90
40255;DHT22;25973;52.368;4.940;2022-09-28T08:53:47;20.00;99.90
40255;DHT22;25973;52.368;4.940;2022-09-28T08:56:28;20.10;99.90
40255;DHT22;25973;52.368;4.940;2022-09-28T08:58:59;20.20;99.90
40255;DHT22;25973;52.368;4.940;2022-09-28T09:01:30;20.10;99.90
40255;DHT22;25973;52.368;4.940;2022-09-28T09:03:56;20.20;99.90
40255;DHT22;25973;52.368;4.940;2022-09-28T09:06:46;20.20;99.90
40255;DHT22;25973;52.368;4.940;2022-09-28T09:10:05;20.20;99.90
40255;DHT22;25973;52.368;4.940;2022-09-28T09:12:27;20.20;99.90
40255;DHT22;25973;52.368;4.940;2022-09-28T09:21:13;20.40;98.90
40255;DHT22;25973;52.368;4.940;2022-09-28T09:26:17;20.70;98.90
40255;DHT22;25973;52.368;4.940;2022-09-28T09:31:47;21.20;99.10
40255;DHT22;25973;52.368;4.940;2022-09-28T09:48:08;25.90;92.50
40255;DHT22;25973;52.368;4.940;2022-09-28T09:50:48;27.20;89.80
40255;DHT22;25973;52.368;4.940;2022-09-28T09:53:25;28.80;87.60
40255;DHT22;25973;52.368;4.940;2022-09-28T09:56:17;29.60;84.60
40255;DHT22;25973;52.368;4.940;2022-09-28T09:58:47;29.30;84.20
40255;DHT22;25973;52.368;4.940;2022-09-28T10:01:18;29.20;83.00
40255;DHT22;25973;52.368;4.940;2022-09-28T10:03:46;28.70;84.60
40255;DHT22;25973;52.368;4.940;2022-09-28T10:06:20;28.00;83.70
40255;DHT22;25973;52.368;4.940;2022-09-28T10:08:57;26.80;86.00
40255;DHT22;25973;52.368;4.940;2022-09-28T10:11:33;25.50;88.40
40255;DHT22;25973;52.368;4.940;2022-09-28T10:14:04;24.20;90.10
40255;DHT22;25973;52.368;4.940;2022-09-28T10:16:33;23.20;91.20
40255;DHT22;25973;52.368;4.940;2022-09-28T10:18:59;22.40;92.20
40255;DHT22;25973;52.368;4.940;2022-09-28T10:21:25;22.10;92.80
40255;DHT22;25973;52.368;4.940;2022-09-28T10:23:57;22.10;92.60
40255;DHT22;25973;52.368;4.940;2022-09-28T10:26:34;22.10;94.50
40255;DHT22;25973;52.368;4.940;2022-09-28T10:29:04;21.80;95.20
40255;DHT22;25973;52.368;4.940;2022-09-28T10:34:08;20.70;97.30
40255;DHT22;25973;52.368;4.940;2022-09-28T10:36:55;20.30;97.70
40255;DHT22;25973;52.368;4.940;2022-09-28T10:39:46;19.70;98.70
40255;DHT22;25973;52.368;4.940;2022-09-28T10:42:18;19.00;99.90
40255;DHT22;25973;52.368;4.940;2022-09-28T10:47:20;17.70;99.90
40255;DHT22;25973;52.368;4.940;2022-09-28T10:49:49;17.30;99.90
40255;DHT22;25973;52.368;4.940;2022-09-28T10:52:41;16.90;99.90
40255;DHT22;25973;52.368;4.940;2022-09-28T10:55:28;16.50;99.90
40255;DHT22;25973;52.368;4.940;2022-09-28T10:57:56;16.20;99.90
40255;DHT22;25973;52.368;4.940;2022-09-28T11:00:37;16.00;99.90
40255;DHT22;25973;52.368;4.940;2022-09-28T11:03:03;15.90;99.90
40255;DHT22;25973;52.368;4.940;2022-09-28T11:05:29;15.80;99.90
40255;DHT22;25973;52.368;4.940;2022-09-28T11:07:58;15.70;99.90
40255;DHT22;25973;52.368;4.940;2022-09-28T11:10:27;15.70;99.90
40255;DHT22;25973;52.368;4.940;2022-09-28T11:12:54;15.60;99.90
40255;DHT22;25973;52.368;4.940;2022-09-28T11:15:24;15.60;99.90
40255;DHT22;25973;52.368;4.940;2022-09-28T11:17:51;15.60;99.90
40255;DHT22;25973;52.368;4.940;2022-09-28T11:22:56;15.50;99.90
40255;DHT22;25973;52.368;4.940;2022-09-28T11:25:27;15.50;99.90
40255;DHT22;25973;52.368;4.940;2022-09-28T11:30:37;15.50;99.90
40255;DHT22;25973;52.368;4.940;2022-09-28T11:33:14;15.60;99.90
40255;DHT22;25973;52.368;4.940;2022-09-28T11:38:30;15.60;99.90
40255;DHT22;25973;52.368;4.940;2022-09-28T11:46:51;15.90;99.90
40255;DHT22;25973;52.368;4.940;2022-09-28T11:51:41;16.00;99.90
40255;DHT22;25973;52.368;4.940;2022-09-28T11:54:39;16.10;99.90
40255;DHT22;25973;52.368;4.940;2022-09-28T11:57:13;16.10;99.90
40255;DHT22;25973;52.368;4.940;2022-09-28T12:00:12;16.10;99.90
40255;DHT22;25973;52.368;4.940;2022-09-28T12:02:56;16.10;99.90
40255;DHT22;25973;52.368;4.940;2022-09-28T12:05:38;16.10;99.90
40255;DHT22;25973;52.368;4.940;2022-09-28T12:10:58;16.30;99.90
40255;DHT22;25973;52.368;4.940;2022-09-28T12:13:32;16.10;99.90
40255;DHT22;25973;52.368;4.940;2022-09-28T12:16:06;16.00;99.90
40255;DHT22;25973;52.368;4.940;2022-09-28T12:18:55;16.00;99.90
40255;DHT22;25973;52.368;4.940;2022-09-28T12:21:42;15.90;99.90
40255;DHT22;25973;52.368;4.940;2022-09-28T12:24:31;15.90;99.90
40255;DHT22;25973;52.368;4.940;2022-09-28T12:27:05;15.90;99.90
40255;DHT22;25973;52.368;4.940;2022-09-28T12:29:39;15.90;99.90
40255;DHT22;25973;52.368;4.940;2022-09-28T12:32:33;15.90;99.90
40255;DHT22;25973;52.368;4.940;2022-09-28T12:35:02;15.80;99.90
40255;DHT22;25973;52.368;4.940;2022-09-28T12:43:32;15.50;99.90
40255;DHT22;25973;52.368;4.940;2022-09-28T12:51:43;14.80;99.90
40255;DHT22;25973;52.368;4.940;2022-09-28T12:57:31;14.60;99.90
40255;DHT22;25973;52.368;4.940;2022-09-28T13:05:15;14.50;99.90
40255;DHT22;25973;52.368;4.940;2022-09-28T13:10:52;14.50;99.90
40255;DHT22;25973;52.368;4.940;2022-09-28T13:14:48;14.50;99.90
40255;DHT22;25973;52.368;4.940;2022-09-28T13:16:59;14.60;99.90
40255;DHT22;25973;52.368;4.940;2022-09-28T13:19:44;14.60;99.90
40255;DHT22;25973;52.368;4.940;2022-09-28T13:25:16;14.60;99.90
40255;DHT22;25973;52.368;4.940;2022-09-28T13:27:49;14.60;99.90
40255;DHT22;25973;52.368;4.940;2022-09-28T13:30:16;14.70;99.90
40255;DHT22;25973;52.368;4.940;2022-09-28T13:32:44;14.70;99.90
40255;DHT22;25973;52.368;4.940;2022-09-28T13:35:15;14.70;99.90
40255;DHT22;25973;52.368;4.940;2022-09-28T13:37:54;14.70;99.90
40255;DHT22;25973;52.368;4.940;2022-09-28T13:41:12;14.70;99.90
40255;DHT22;25973;52.368;4.940;2022-09-28T13:52:27;14.60;99.90
40255;DHT22;25973;52.368;4.940;2022-09-28T13:57:34;14.50;99.90
40255;DHT22;25973;52.368;4.940;2022-09-28T14:00:25;14.50;99.90
40255;DHT22;25973;52.368;4.940;2022-09-28T14:05:34;14.40;99.90
40255;DHT22;25973;52.368;4.940;2022-09-28T14:16:36;14.30;99.90
40255;DHT22;25973;52.368;4.940;2022-09-28T14:19:23;14.20;99.90
40255;DHT22;25973;52.368;4.940;2022-09-28T14:29:43;14.10;99.90
40255;DHT22;25973;52.368;4.940;2022-09-28T14:34:41;14.00;99.90
40255;DHT22;25973;52.368;4.940;2022-09-28T14:37:40;14.00;99.90
40255;DHT22;25973;52.368;4.940;2022-09-28T14:40:26;14.00;99.90
40255;DHT22;25973;52.368;4.940;2022-09-28T14:43:24;14.00;99.90
40255;DHT22;25973;52.368;4.940;2022-09-28T14:45:51;14.00;99.90
40255;DHT22;25973;52.368;4.940;2022-09-28T14:48:53;14.00;99.90
40255;DHT22;25973;52.368;4.940;2022-09-28T14:56:48;14.10;99.90
40255;DHT22;25973;52.368;4.940;2022-09-28T15:02:20;14.10;99.90
40255;DHT22;25973;52.368;4.940;2022-09-28T15:04:50;14.10;99.90
40255;DHT22;25973;52.368;4.940;2022-09-28T15:07:43;14.10;99.90
40255;DHT22;25973;52.368;4.940;2022-09-28T15:10:27;14.10;99.90
40255;DHT22;25973;52.368;4.940;2022-09-28T15:12:57;14.10;99.90
40255;DHT22;25973;52.368;4.940;2022-09-28T15:15:32;14.00;99.90
40255;DHT22;25973;52.368;4.940;2022-09-28T15:18:15;14.00;99.90
40255;DHT22;25973;52.368;4.940;2022-09-28T15:20:49;13.90;99.90
40255;DHT22;25973;52.368;4.940;2022-09-28T15:23:36;13.80;99.90
40255;DHT22;25973;52.368;4.940;2022-09-28T15:26:05;13.60;99.90
40255;DHT22;25973;52.368;4.940;2022-09-28T15:28:34;13.50;99.90
40255;DHT22;25973;52.368;4.940;2022-09-28T15:31:02;13.30;99.90
40255;DHT22;25973;52.368;4.940;2022-09-28T15:33:29;13.10;99.90
40255;DHT22;25973;52.368;4.940;2022-09-28T15:36:17;13.00;99.90
40255;DHT22;25973;52.368;4.940;2022-09-28T15:41:26;12.80;99.90
40255;DHT22;25973;52.368;4.940;2022-09-28T15:46:44;12.70;99.90
40255;DHT22;25973;52.368;4.940;2022-09-28T15:51:49;12.80;99.90
40255;DHT22;25973;52.368;4.940;2022-09-28T15:54:25;12.70;99.90
40255;DHT22;25973;52.368;4.940;2022-09-28T15:57:00;12.80;99.90
40255;DHT22;25973;52.368;4.940;2022-09-28T16:02:11;12.80;99.90
40255;DHT22;25973;52.368;4.940;2022-09-28T16:04:45;12.90;99.90
40255;DHT22;25973;52.368;4.940;2022-09-28T16:07:22;12.90;99.90
40255;DHT22;25973;52.368;4.940;2022-09-28T16:15:32;12.90;99.90
40255;DHT22;25973;52.368;4.940;2022-09-28T16:20:39;12.80;99.90
40255;DHT22;25973;52.368;4.940;2022-09-28T16:23:23;12.80;99.90
40255;DHT22;25973;52.368;4.940;2022-09-28T16:26:03;12.80;99.90
40255;DHT22;25973;52.368;4.940;2022-09-28T16:31:04;12.80;99.90
40255;DHT22;25973;52.368;4.940;2022-09-28T16:33:42;12.70;99.90
40255;DHT22;25973;52.368;4.940;2022-09-28T16:36:14;12.70;99.90
40255;DHT22;25973;52.368;4.940;2022-09-28T16:38:44;12.70;99.90
40255;DHT22;25973;52.368;4.940;2022-09-28T16:41:10;12.70;99.90
40255;DHT22;25973;52.368;4.940;2022-09-28T16:43:37;12.70;99.90
40255;DHT22;25973;52.368;4.940;2022-09-28T16:48:36;12.80;99.90
40255;DHT22;25973;52.368;4.940;2022-09-28T16:51:04;12.80;99.90
40255;DHT22;25973;52.368;4.940;2022-09-28T16:53:30;12.80;99.90
40255;DHT22;25973;52.368;4.940;2022-09-28T16:56:15;12.80;99.90
40255;DHT22;25973;52.368;4.940;2022-09-28T16:58:42;12.80;99.90
40255;DHT22;25973;52.368;4.940;2022-09-28T17:01:09;12.80;99.90
40255;DHT22;25973;52.368;4.940;2022-09-28T17:03:36;12.80;99.90
40255;DHT22;25973;52.368;4.940;2022-09-28T17:06:03;12.70;99.90
40255;DHT22;25973;52.368;4.940;2022-09-28T17:08:30;12.70;99.90
40255;DHT22;25973;52.368;4.940;2022-09-28T17:10:59;12.60;99.90
40255;DHT22;25973;52.368;4.940;2022-09-28T17:13:28;12.60;99.90
40255;DHT22;25973;52.368;4.940;2022-09-28T17:16:03;12.60;99.90
40255;DHT22;25973;52.368;4.940;2022-09-28T17:18:32;12.60;99.90
40255;DHT22;25973;52.368;4.940;2022-09-28T17:21:03;12.60;99.90
40255;DHT22;25973;52.368;4.940;2022-09-28T17:23:29;12.60;99.90
40255;DHT22;25973;52.368;4.940;2022-09-28T17:25:55;12.60;99.90
40255;DHT22;25973;52.368;4.940;2022-09-28T17:28:24;12.60;99.90
40255;DHT22;25973;52.368;4.940;2022-09-28T17:30:51;12.60;99.90
40255;DHT22;25973;52.368;4.940;2022-09-28T17:33:17;12.70;99.90
40255;DHT22;25973;52.368;4.940;2022-09-28T17:35:43;12.60;99.90
40255;DHT22;25973;52.368;4.940;2022-09-28T17:38:13;12.60;99.90
40255;DHT22;25973;52.368;4.940;2022-09-28T17:40:40;12.60;99.90
40255;DHT22;25973;52.368;4.940;2022-09-28T17:43:06;12.60;99.90
40255;DHT22;25973;52.368;4.940;2022-09-28T17:45:32;12.60;99.90
40255;DHT22;25973;52.368;4.940;2022-09-28T17:48:01;12.60;99.90
40255;DHT22;25973;52.368;4.940;2022-09-28T17:50:29;12.60;99.90
40255;DHT22;25973;52.368;4.940;2022-09-28T17:52:57;12.60;99.90
40255;DHT22;25973;52.368;4.940;2022-09-28T17:55:29;12.50;99.90
40255;DHT22;25973;52.368;4.940;2022-09-28T17:57:59;12.60;99.90
40255;DHT22;25973;52.368;4.940;2022-09-28T18:00:26;12.50;99.90
40255;DHT22;25973;52.368;4.940;2022-09-28T18:02:56;12.50;99.90
40255;DHT22;25973;52.368;4.940;2022-09-28T18:05:25;12.50;99.90
40255;DHT22;25973;52.368;4.940;2022-09-28T18:07:52;12.50;99.90
40255;DHT22;25973;52.368;4.940;2022-09-28T18:10:21;12.50;99.90
40255;DHT22;25973;52.368;4.940;2022-09-28T18:12:47;12.50;99.90
40255;DHT22;25973;52.368;4.940;2022-09-28T18:15:14;12.50;99.90
40255;DHT22;25973;52.368;4.940;2022-09-28T18:17:40;12.50;99.90
40255;DHT22;25973;52.368;4.940;2022-09-28T18:20:07;12.50;99.90
40255;DHT22;25973;52.368;4.940;2022-09-28T18:22:33;12.50;99.90
40255;DHT22;25973;52.368;4.940;2022-09-28T18:24:59;12.50;99.90
40255;DHT22;25973;52.368;4.940;2022-09-28T18:27:27;12.50;99.90
40255;DHT22;25973;52.368;4.940;2022-09-28T18:29:53;12.40;99.90
40255;DHT22;25973;52.368;4.940;2022-09-28T18:32:18;12.40;99.90
40255;DHT22;25973;52.368;4.940;2022-09-28T18:34:44;12.40;99.90
40255;DHT22;25973;52.368;4.940;2022-09-28T18:37:10;12.40;99.90
40255;DHT22;25973;52.368;4.940;2022-09-28T18:39:35;12.30;99.90
40255;DHT22;25973;52.368;4.940;2022-09-28T18:42:01;12.30;99.90
40255;DHT22;25973;52.368;4.940;2022-09-28T18:44:27;12.30;99.90
40255;DHT22;25973;52.368;4.940;2022-09-28T18:46:53;12.30;99.90
40255;DHT22;25973;52.368;4.940;2022-09-28T18:49:19;12.20;99.90